Time;durP1;ratioP1;P1;durP2;ratioP2;P2;SDS_P1;SDS_P2;PMS_P1;PMS_P2;Temp;Humidity;BMP_temperature;BMP_pressure;BME280_temperature;BME280_humidity;BME280_pressure;Samples;Min_cycle;Max_cycle;Signal;HPM_P1;HPM_P2
2022/11/27 00:01:26;;;;;;;;;;;;;;;6.15;61.73;100877.78;5115905;27;19935;-90
2022/11/27 00:03:53;;;;;;;;;;;;;;;5.96;62.26;100887.81;5134026;27;19964;-88
2022/11/27 00:06:20;;;;;;;;;;;;;;;5.99;62.54;100879.19;5116770;27;19966;-88
2022/11/27 00:08:46;;;;;;;;;;;;;;;6.06;61.93;100881.09;5125032;27;19915;-91
2022/11/27 00:11:12;;;;;;;;;;;;;;;5.94;62.36;100881.66;5133948;27;19911;-86
2022/11/27 00:13:38;;;;;;;;;;;;;;;5.90;62.24;100883.34;5133930;27;19954;-87
2022/11/27 00:16:04;;;;;;;;;;;;;;;5.99;61.72;100877.44;5133748;27;19965;-87
2022/11/27 00:18:29;;;;;;;;;;;;;;;6.00;61.55;100880.97;5133308;27;19915;-87
2022/11/27 00:20:54;;;;;;;;;;;;;;;5.83;62.27;100891.03;5133564;27;19947;-87
2022/11/27 00:23:20;;;;;;;;;;;;;;;5.86;62.41;100889.34;5133272;27;19947;-89
2022/11/27 00:25:49;;;;;;;;;;;;;;;5.88;62.33;100885.03;5133345;27;19915;-89
2022/11/27 00:28:14;;;;;;;;;;;;;;;5.92;62.53;100886.00;5108813;28;20340;-90
2022/11/27 00:30:39;;;;;;;;;;;;;;;5.97;62.56;100884.41;5094738;28;19918;-90
2022/11/27 00:33:05;;;;;;;;;;;;;;;6.00;62.07;100894.06;5119566;27;19926;-89
2022/11/27 00:35:30;;;;;;;;;;;;;;;5.91;61.74;100889.47;5114005;27;19915;-90
2022/11/27 00:37:55;;;;;;;;;;;;;;;5.90;61.75;100904.31;5114182;27;20400;-95
2022/11/27 00:40:21;;;;;;;;;;;;;;;5.99;61.19;100897.53;5113552;27;20282;-92
2022/11/27 00:42:46;;;;;;;;;;;;;;;5.76;61.78;100904.81;5112294;28;19912;-88
2022/11/27 00:45:11;;;;;;;;;;;;;;;5.80;61.68;100904.03;5112757;28;20011;-89
2022/11/27 00:47:37;;;;;;;;;;;;;;;5.57;61.34;100907.84;5094067;28;19911;-90
2022/11/27 00:50:03;;;;;;;;;;;;;;;5.68;61.37;100909.88;5113588;27;19927;-89
2022/11/27 00:52:28;;;;;;;;;;;;;;;5.60;61.65;100916.66;5112290;28;19998;-88
2022/11/27 00:54:53;;;;;;;;;;;;;;;5.50;61.52;100910.28;5112007;28;19912;-88
2022/11/27 00:57:19;;;;;;;;;;;;;;;5.26;62.20;100915.78;5094195;28;19963;-89
2022/11/27 00:59:44;;;;;;;;;;;;;;;5.29;62.56;100908.03;5112691;28;19926;-87
2022/11/27 01:02:09;;;;;;;;;;;;;;;5.37;61.90;100904.75;5112162;28;19911;-88
2022/11/27 01:04:35;;;;;;;;;;;;;;;5.35;62.21;100906.44;5112363;28;19958;-88
2022/11/27 01:07:00;;;;;;;;;;;;;;;5.49;62.28;100895.44;5116740;27;19964;-89
2022/11/27 01:09:25;;;;;;;;;;;;;;;5.51;62.16;100897.22;5115430;27;19919;-89
2022/11/27 01:11:52;;;;;;;;;;;;;;;5.49;62.82;100893.72;5125501;27;19915;-88
2022/11/27 01:14:17;;;;;;;;;;;;;;;5.35;62.83;100884.63;5124508;27;19916;-89
2022/11/27 01:16:43;;;;;;;;;;;;;;;5.37;62.43;100886.41;5112364;27;19916;-91
2022/11/27 01:19:09;;;;;;;;;;;;;;;5.52;62.71;100885.06;5112599;28;19915;-90
2022/11/27 01:21:34;;;;;;;;;;;;;;;5.63;62.48;100883.56;5112199;28;19914;-92
2022/11/27 01:24:00;;;;;;;;;;;;;;;5.81;62.56;100891.00;5094918;27;19915;-91
2022/11/27 01:26:26;;;;;;;;;;;;;;;5.82;62.56;100891.88;5110706;28;19919;-91
2022/11/27 01:28:52;;;;;;;;;;;;;;;5.98;61.68;100893.13;5112065;28;19919;-91
2022/11/27 01:31:22;;;;;;;;;;;;;;;5.96;61.99;100886.94;5110267;28;19911;-90
2022/11/27 01:33:51;;;;;;;;;;;;;;;6.10;61.72;100882.94;5112402;28;20002;-90
2022/11/27 01:36:16;;;;;;;;;;;;;;;6.07;61.95;100886.38;5091252;28;19962;-91
2022/11/27 01:38:42;;;;;;;;;;;;;;;5.73;62.44;100887.28;5092059;28;19912;-90
2022/11/27 01:41:16;;;;;;;;;;;;;;;5.83;62.46;100896.25;5090196;28;19915;-90
2022/11/27 01:43:41;;;;;;;;;;;;;;;5.92;62.45;100899.09;5113197;28;20439;-90
2022/11/27 01:46:15;;;;;;;;;;;;;;;6.03;61.97;100888.91;5111933;28;19959;-91
2022/11/27 01:48:41;;;;;;;;;;;;;;;5.96;62.39;100895.69;5110101;28;20385;-91
2022/11/27 01:51:06;;;;;;;;;;;;;;;5.91;62.27;100900.81;5111839;28;19919;-91
2022/11/27 01:53:33;;;;;;;;;;;;;;;5.98;61.93;100893.13;5110566;28;19907;-91
2022/11/27 01:55:59;;;;;;;;;;;;;;;5.92;62.27;100894.72;5106740;28;19942;-91
2022/11/27 01:58:26;;;;;;;;;;;;;;;5.87;62.34;100895.47;5089960;28;19948;-90
2022/11/27 02:00:53;;;;;;;;;;;;;;;5.79;62.91;100890.03;5111050;28;19908;-87
2022/11/27 02:03:19;;;;;;;;;;;;;;;5.98;62.84;100880.03;5110352;28;19912;-88
2022/11/27 02:05:44;;;;;;;;;;;;;;;5.91;63.42;100892.94;5114432;28;20450;-88
2022/11/27 02:08:11;;;;;;;;;;;;;;;5.96;63.49;100882.59;5114423;28;19946;-87
2022/11/27 02:10:54;;;;;;;;;;;;;;;5.98;63.69;100890.50;5115100;28;20390;-89
2022/11/27 02:13:32;;;;;;;;;;;;;;;5.97;63.91;100889.63;5115790;28;19998;-88
2022/11/27 02:16:16;;;;;;;;;;;;;;;5.93;64.44;100885.13;5110045;28;19924;-88
2022/11/27 02:18:47;;;;;;;;;;;;;;;6.08;63.92;100888.13;5096778;28;20367;-87
2022/11/27 02:21:12;;;;;;;;;;;;;;;6.25;63.99;100880.63;5115465;28;20467;-87
2022/11/27 02:23:41;;;;;;;;;;;;;;;6.34;62.85;100882.59;5114415;28;19912;-88
2022/11/27 02:26:12;;;;;;;;;;;;;;;6.13;63.46;100883.00;5131880;27;20380;-87
2022/11/27 02:28:52;;;;;;;;;;;;;;;6.05;63.87;100881.94;5134582;27;20454;-89
2022/11/27 02:31:20;;;;;;;;;;;;;;;5.99;64.59;100880.06;5114911;28;20436;-90
2022/11/27 02:33:49;;;;;;;;;;;;;;;6.13;64.54;100888.22;5116627;27;19960;-88
2022/11/27 02:36:20;;;;;;;;;;;;;;;6.15;64.21;100881.31;5116847;27;19919;-87
2022/11/27 02:38:50;;;;;;;;;;;;;;;6.24;64.22;100892.00;5135387;27;19919;-89
2022/11/27 02:41:28;;;;;;;;;;;;;;;6.28;64.29;100887.69;5116881;27;19907;-87
2022/11/27 02:43:54;;;;;;;;;;;;;;;6.33;64.35;100888.66;5135289;27;20475;-87
2022/11/27 02:46:20;;;;;;;;;;;;;;;6.29;63.86;100884.22;5135456;27;20010;-87
2022/11/27 02:48:50;;;;;;;;;;;;;;;6.29;64.26;100889.47;5135404;27;19918;-87
2022/11/27 02:51:19;;;;;;;;;;;;;;;6.32;63.69;100897.41;5114994;27;20412;-87
2022/11/27 02:53:46;;;;;;;;;;;;;;;6.24;63.99;100901.56;5115246;27;20292;-88
2022/11/27 02:56:15;;;;;;;;;;;;;;;6.26;64.15;100902.50;5135204;27;20288;-88
2022/11/27 02:58:41;;;;;;;;;;;;;;;6.25;63.85;100904.22;5135223;27;20395;-88
2022/11/27 03:01:08;;;;;;;;;;;;;;;6.31;63.40;100900.88;5135402;27;19907;-88
2022/11/27 03:03:36;;;;;;;;;;;;;;;6.19;63.87;100900.59;5115896;27;19980;-86
2022/11/27 03:06:08;;;;;;;;;;;;;;;6.04;63.89;100899.41;5135368;27;19915;-87
2022/11/27 03:08:36;;;;;;;;;;;;;;;6.08;64.12;100906.47;5133108;27;20437;-87
2022/11/27 03:11:01;;;;;;;;;;;;;;;6.09;63.86;100907.38;5114725;28;19919;-87
2022/11/27 03:13:27;;;;;;;;;;;;;;;6.14;63.14;100910.97;5105225;27;19912;-88
2022/11/27 03:16:19;;;;;;;;;;;;;;;5.67;63.69;100908.09;5115330;28;20448;-91
2022/11/27 03:18:56;;;;;;;;;;;;;;;5.85;63.42;100913.75;5117379;27;19912;-88
2022/11/27 03:21:26;;;;;;;;;;;;;;;5.80;63.33;100907.53;5116702;27;19914;-90
2022/11/27 03:23:52;;;;;;;;;;;;;;;5.89;63.33;100910.38;5122126;27;19912;-89
2022/11/27 03:26:17;;;;;;;;;;;;;;;5.94;63.16;100910.47;5096631;27;19942;-90
2022/11/27 03:28:44;;;;;;;;;;;;;;;5.89;63.48;100918.22;5095448;28;19977;-93
2022/11/27 03:31:10;;;;;;;;;;;;;;;5.72;63.42;100917.84;5114304;28;20388;-90
2022/11/27 03:33:36;;;;;;;;;;;;;;;5.84;63.25;100919.88;5095064;28;19923;-89
2022/11/27 03:36:01;;;;;;;;;;;;;;;5.82;63.60;100924.16;5095902;28;20274;-89
2022/11/27 03:38:27;;;;;;;;;;;;;;;5.86;63.24;100912.94;5112804;28;19968;-90
2022/11/27 03:40:57;;;;;;;;;;;;;;;5.83;63.10;100920.72;5113996;28;19934;-90
2022/11/27 03:43:26;;;;;;;;;;;;;;;5.92;63.49;100917.44;5141890;27;19916;-90
2022/11/27 03:46:00;;;;;;;;;;;;;;;5.95;63.30;100917.50;5143313;27;20361;-90
2022/11/27 03:48:34;;;;;;;;;;;;;;;5.98;63.52;100915.00;5146721;27;19907;-91
2022/11/27 03:51:22;;;;;;;;;;;;;;;6.09;63.14;100910.88;5140688;27;19911;-86
2022/11/27 03:53:54;;;;;;;;;;;;;;;6.04;63.36;100908.97;5137272;27;19905;-89
2022/11/27 03:56:19;;;;;;;;;;;;;;;6.03;62.56;100910.72;5148157;27;19915;-90
2022/11/27 03:59:10;;;;;;;;;;;;;;;6.05;62.70;100902.91;5148698;27;19983;-92
2022/11/27 04:01:36;;;;;;;;;;;;;;;6.10;62.48;100911.75;5089522;27;19957;-92
2022/11/27 04:04:01;;;;;;;;;;;;;;;6.13;62.64;100911.81;5099112;27;19924;-91
2022/11/27 04:06:26;;;;;;;;;;;;;;;6.16;62.74;100908.38;5115825;27;19934;-93
2022/11/27 04:08:52;;;;;;;;;;;;;;;6.16;62.79;100908.38;5111292;28;20312;-92
2022/11/27 04:11:17;;;;;;;;;;;;;;;6.12;62.67;100901.28;5095523;28;19912;-91
2022/11/27 04:13:43;;;;;;;;;;;;;;;5.96;62.63;100910.53;5095092;28;19965;-90
2022/11/27 04:16:08;;;;;;;;;;;;;;;5.94;62.23;100893.91;5113182;28;20411;-91
2022/11/27 04:18:33;;;;;;;;;;;;;;;6.06;61.72;100895.09;5114368;27;20011;-89
2022/11/27 04:20:59;;;;;;;;;;;;;;;5.99;61.49;100900.16;5112927;28;19911;-89
2022/11/27 04:23:24;;;;;;;;;;;;;;;5.92;61.90;100896.47;5115482;27;19922;-89
2022/11/27 04:25:50;;;;;;;;;;;;;;;6.22;61.60;100898.91;5113055;28;19922;-89
2022/11/27 04:28:16;;;;;;;;;;;;;;;6.17;61.93;100903.19;5112687;28;19951;-89
2022/11/27 04:30:42;;;;;;;;;;;;;;;6.08;62.47;100906.47;5112792;28;19912;-89
2022/11/27 04:33:07;;;;;;;;;;;;;;;6.11;62.44;100897.81;5117455;27;19944;-88
2022/11/27 04:35:32;;;;;;;;;;;;;;;6.06;61.97;100905.56;5132713;27;19911;-86
2022/11/27 04:37:58;;;;;;;;;;;;;;;6.17;61.30;100913.66;5133298;27;19912;-89
2022/11/27 04:40:24;;;;;;;;;;;;;;;5.96;61.78;100902.66;5133530;27;19938;-88
2022/11/27 04:42:49;;;;;;;;;;;;;;;5.95;62.42;100903.50;5132858;27;19918;-93
2022/11/27 04:45:15;;;;;;;;;;;;;;;5.91;61.74;100907.78;5133672;27;19956;-90
2022/11/27 04:47:41;;;;;;;;;;;;;;;5.89;62.34;100910.38;5133222;27;19917;-89
2022/11/27 04:50:07;;;;;;;;;;;;;;;5.68;62.21;100915.09;5132873;27;19919;-89
2022/11/27 04:52:33;;;;;;;;;;;;;;;5.58;62.73;100911.38;5132720;27;19911;-90
2022/11/27 04:54:58;;;;;;;;;;;;;;;5.60;62.72;100911.41;5132441;27;19918;-87
2022/11/27 04:57:23;;;;;;;;;;;;;;;5.66;63.17;100908.94;5132922;27;19915;-88
2022/11/27 04:59:49;;;;;;;;;;;;;;;5.84;62.69;100909.41;5114500;27;20400;-89
2022/11/27 05:02:14;;;;;;;;;;;;;;;5.79;62.53;100908.38;5132756;27;19925;-88
2022/11/27 05:04:39;;;;;;;;;;;;;;;6.01;62.54;100916.78;5132153;27;19988;-87
2022/11/27 05:07:05;;;;;;;;;;;;;;;5.96;63.30;100919.25;5121699;27;19919;-86
2022/11/27 05:09:30;;;;;;;;;;;;;;;6.19;62.75;100911.94;5132950;27;19990;-88
2022/11/27 05:11:55;;;;;;;;;;;;;;;6.22;62.65;100913.75;5119738;27;19923;-87
2022/11/27 05:14:23;;;;;;;;;;;;;;;6.13;63.08;100908.31;5112744;28;19912;-87
2022/11/27 05:16:49;;;;;;;;;;;;;;;6.25;62.78;100919.94;5112021;28;19912;-87
2022/11/27 05:19:16;;;;;;;;;;;;;;;6.25;62.65;100919.06;5118657;27;20002;-87
2022/11/27 05:21:42;;;;;;;;;;;;;;;6.32;62.86;100915.75;5130981;27;19922;-88
2022/11/27 05:24:07;;;;;;;;;;;;;;;6.34;62.87;100918.41;5120395;27;20304;-87
2022/11/27 05:26:33;;;;;;;;;;;;;;;6.40;62.54;100924.66;5119806;27;19912;-87
2022/11/27 05:28:59;;;;;;;;;;;;;;;6.36;63.04;100925.44;5127219;27;19916;-88
2022/11/27 05:31:24;;;;;;;;;;;;;;;6.42;62.84;100922.94;5132137;27;19921;-88
2022/11/27 05:33:49;;;;;;;;;;;;;;;6.43;62.61;100922.09;5132294;27;20301;-88
2022/11/27 05:36:15;;;;;;;;;;;;;;;6.51;62.45;100922.25;5132452;27;19968;-87
2022/11/27 05:38:40;;;;;;;;;;;;;;;6.34;61.45;100921.91;5132273;27;20002;-89
2022/11/27 05:41:05;;;;;;;;;;;;;;;6.06;61.80;100931.75;5132690;28;19915;-89
2022/11/27 05:43:31;;;;;;;;;;;;;;;5.95;61.82;100937.56;5132060;28;20414;-88
2022/11/27 05:45:56;;;;;;;;;;;;;;;5.94;61.88;100933.19;5130362;28;19915;-89
2022/11/27 05:48:21;;;;;;;;;;;;;;;5.92;61.95;100930.53;5132380;28;19976;-87
2022/11/27 05:50:47;;;;;;;;;;;;;;;5.94;62.04;100930.56;5131828;28;19919;-86
2022/11/27 05:53:12;;;;;;;;;;;;;;;6.11;61.82;100934.47;5131670;28;19916;-88
2022/11/27 05:55:38;;;;;;;;;;;;;;;6.19;61.35;100929.41;5129596;27;19950;-88
2022/11/27 05:58:03;;;;;;;;;;;;;;;6.23;61.17;100932.16;5130231;27;19915;-88
2022/11/27 06:00:29;;;;;;;;;;;;;;;6.37;61.51;100945.56;5132873;27;19915;-87
2022/11/27 06:02:55;;;;;;;;;;;;;;;6.38;61.37;100946.44;5129094;27;20293;-87
2022/11/27 06:05:20;;;;;;;;;;;;;;;6.44;61.17;100954.44;5115520;27;19919;-89
2022/11/27 06:07:46;;;;;;;;;;;;;;;6.23;61.71;100954.84;5123180;28;19926;-87
2022/11/27 06:10:11;;;;;;;;;;;;;;;6.24;61.81;100959.22;5131298;28;19911;-87
2022/11/27 06:12:36;;;;;;;;;;;;;;;6.40;62.16;100956.09;5132048;28;19911;-86
2022/11/27 06:15:02;;;;;;;;;;;;;;;6.52;61.62;100965.09;5131844;28;20313;-90
2022/11/27 06:17:27;;;;;;;;;;;;;;;6.46;61.26;100963.22;5119792;28;19958;-83
2022/11/27 06:19:53;;;;;;;;;;;;;;;6.49;61.46;100960.69;5124020;28;19941;-83
2022/11/27 06:22:18;;;;;;;;;;;;;;;6.70;61.09;100973.34;5112717;28;19911;-83
2022/11/27 06:24:43;;;;;;;;;;;;;;;6.70;61.37;100972.47;5121888;27;19916;-83
2022/11/27 06:27:09;;;;;;;;;;;;;;;6.86;61.27;100965.78;5131871;28;19911;-86
2022/11/27 06:29:35;;;;;;;;;;;;;;;6.77;61.05;100966.50;5126154;27;19919;-85
2022/11/27 06:32:01;;;;;;;;;;;;;;;6.94;60.67;100953.75;5118198;27;19963;-84
2022/11/27 06:34:26;;;;;;;;;;;;;;;7.01;60.55;100957.34;5111202;28;19974;-85
2022/11/27 06:36:51;;;;;;;;;;;;;;;6.98;60.93;100956.44;5111401;28;19912;-84
2022/11/27 06:39:17;;;;;;;;;;;;;;;7.07;60.69;100963.59;5110991;28;19922;-89
2022/11/27 06:41:42;;;;;;;;;;;;;;;7.15;60.66;100966.38;5111266;28;19935;-86
2022/11/27 06:44:08;;;;;;;;;;;;;;;7.15;60.86;100964.66;5111320;28;19970;-85
2022/11/27 06:46:33;;;;;;;;;;;;;;;7.04;60.97;100967.91;5110809;28;20385;-85
2022/11/27 06:48:59;;;;;;;;;;;;;;;7.26;60.44;100964.84;5110427;27;19908;-85
2022/11/27 06:51:26;;;;;;;;;;;;;;;7.01;60.30;100965.22;5114291;27;19920;-83
2022/11/27 06:53:51;;;;;;;;;;;;;;;7.20;60.82;100961.22;5135356;27;20294;-83
2022/11/27 06:56:19;;;;;;;;;;;;;;;7.34;60.47;100965.00;5135007;27;19911;-85
2022/11/27 06:58:44;;;;;;;;;;;;;;;7.29;59.86;100956.13;5134292;27;19940;-83
2022/11/27 07:01:14;;;;;;;;;;;;;;;6.97;61.14;100964.28;5131402;27;19915;-83
2022/11/27 07:03:40;;;;;;;;;;;;;;;7.10;60.53;100962.78;5115557;27;19911;-83
2022/11/27 07:06:06;;;;;;;;;;;;;;;7.41;60.85;100958.09;5134763;27;19994;-82
2022/11/27 07:08:32;;;;;;;;;;;;;;;7.56;59.37;100955.75;5129741;27;19976;-84
2022/11/27 07:11:03;;;;;;;;;;;;;;;7.46;58.68;100959.97;5125190;27;19955;-86
2022/11/27 07:13:29;;;;;;;;;;;;;;;7.29;58.65;100964.91;5128711;27;19922;-86
2022/11/27 07:15:58;;;;;;;;;;;;;;;7.49;59.23;100964.38;5117469;27;19920;-87
2022/11/27 07:18:23;;;;;;;;;;;;;;;7.64;59.31;100958.53;5125290;27;19915;-86
2022/11/27 07:20:52;;;;;;;;;;;;;;;7.88;58.18;100964.19;5128589;27;19911;-87
2022/11/27 07:23:17;;;;;;;;;;;;;;;8.07;58.47;100967.97;5128317;27;19918;-88
2022/11/27 07:25:42;;;;;;;;;;;;;;;7.92;56.08;100961.59;5114052;27;19916;-88
2022/11/27 07:28:08;;;;;;;;;;;;;;;7.63;56.65;100975.13;5123207;27;19916;-84
2022/11/27 07:30:33;;;;;;;;;;;;;;;7.73;57.24;100969.19;5127058;27;20380;-84
2022/11/27 07:32:58;;;;;;;;;;;;;;;8.20;57.06;100965.53;5127252;27;20377;-84
2022/11/27 07:35:24;;;;;;;;;;;;;;;8.10;56.30;100964.53;5119714;27;19923;-87
2022/11/27 07:37:49;;;;;;;;;;;;;;;8.34;55.85;100961.38;5114097;27;19920;-85
2022/11/27 07:40:14;;;;;;;;;;;;;;;8.16;55.50;100934.81;5113399;27;19945;-84
2022/11/27 07:42:40;;;;;;;;;;;;;;;8.50;55.63;100964.25;5122580;27;19922;-83
2022/11/27 07:45:06;;;;;;;;;;;;;;;8.31;54.38;100960.44;5123473;27;19916;-84
2022/11/27 07:47:31;;;;;;;;;;;;;;;8.66;54.66;100960.06;5117761;27;19922;-84
2022/11/27 07:49:59;;;;;;;;;;;;;;;8.74;54.16;100961.97;5126471;27;19915;-85
2022/11/27 07:52:24;;;;;;;;;;;;;;;8.49;54.41;100968.63;5133208;27;19912;-86
2022/11/27 07:54:49;;;;;;;;;;;;;;;8.23;54.90;100970.84;5120916;27;19919;-86
2022/11/27 07:57:15;;;;;;;;;;;;;;;8.55;54.04;100963.44;5132951;27;19911;-85
2022/11/27 07:59:40;;;;;;;;;;;;;;;7.74;55.73;100968.34;5120678;27;19918;-86
2022/11/27 08:02:05;;;;;;;;;;;;;;;7.99;55.24;100964.34;5118721;27;19915;-87
2022/11/27 08:04:31;;;;;;;;;;;;;;;8.13;55.25;100967.19;5122605;27;19912;-87
2022/11/27 08:06:57;;;;;;;;;;;;;;;8.47;55.33;100964.22;5097399;27;19915;-86
2022/11/27 08:09:23;;;;;;;;;;;;;;;8.37;54.05;100964.06;5114883;27;19912;-84
2022/11/27 08:11:48;;;;;;;;;;;;;;;8.38;53.86;100963.19;5112873;27;19922;-86
2022/11/27 08:14:13;;;;;;;;;;;;;;;7.98;54.11;100967.84;5123498;27;19915;-85
2022/11/27 08:16:39;;;;;;;;;;;;;;;8.04;54.77;100962.66;5119378;27;19919;-85
2022/11/27 08:19:04;;;;;;;;;;;;;;;7.62;54.95;100968.13;5123639;27;19919;-85
2022/11/27 08:21:29;;;;;;;;;;;;;;;7.90;54.89;100969.47;5125916;27;19911;-85
2022/11/27 08:23:55;;;;;;;;;;;;;;;7.98;55.24;100961.69;5116325;27;19968;-85
2022/11/27 08:26:20;;;;;;;;;;;;;;;8.37;54.35;100963.16;5118130;27;19972;-85
2022/11/27 08:28:46;;;;;;;;;;;;;;;8.46;54.69;100970.34;5121896;27;19911;-85
2022/11/27 08:31:12;;;;;;;;;;;;;;;8.83;53.57;100963.81;5121004;27;19923;-85
2022/11/27 08:33:37;;;;;;;;;;;;;;;8.86;52.63;100958.56;5121111;27;20026;-86
2022/11/27 08:36:03;;;;;;;;;;;;;;;9.18;52.41;100959.84;5140433;27;20001;-85
2022/11/27 08:38:29;;;;;;;;;;;;;;;9.25;52.62;100949.38;5126267;27;20018;-85
2022/11/27 08:40:58;;;;;;;;;;;;;;;9.27;52.24;100952.91;5123492;27;20374;-85
2022/11/27 08:43:24;;;;;;;;;;;;;;;8.82;53.03;100956.78;5125408;27;19912;-86
2022/11/27 08:45:49;;;;;;;;;;;;;;;9.22;52.22;100951.06;5122981;27;19998;-86
2022/11/27 08:48:15;;;;;;;;;;;;;;;9.15;52.09;100950.13;5120465;27;20073;-85
2022/11/27 08:50:40;;;;;;;;;;;;;;;9.09;52.09;100944.81;5125464;27;19918;-84
2022/11/27 08:53:05;;;;;;;;;;;;;;;9.11;52.64;100950.97;5133036;27;19918;-86
2022/11/27 08:55:31;;;;;;;;;;;;;;;8.86;51.51;100949.81;5132551;27;20005;-85
2022/11/27 08:57:56;;;;;;;;;;;;;;;9.22;52.99;100956.34;5132644;27;19912;-85
2022/11/27 09:00:21;;;;;;;;;;;;;;;9.47;52.78;100952.22;5132399;27;19965;-85
2022/11/27 09:02:47;;;;;;;;;;;;;;;9.40;54.37;100951.25;5132180;27;19915;-85
2022/11/27 09:05:12;;;;;;;;;;;;;;;9.97;51.57;100950.88;5132711;27;19912;-85
2022/11/27 09:07:39;;;;;;;;;;;;;;;9.82;50.63;100944.63;5132033;27;20411;-85
2022/11/27 09:10:05;;;;;;;;;;;;;;;9.54;50.62;100946.13;5119588;27;19927;-84
2022/11/27 09:12:30;;;;;;;;;;;;;;;9.75;51.67;100934.91;5131795;27;19911;-83
2022/11/27 09:14:55;;;;;;;;;;;;;;;9.75;50.36;100937.53;5131632;27;20028;-83
2022/11/27 09:17:21;;;;;;;;;;;;;;;9.86;51.01;100933.22;5131774;27;19915;-84
2022/11/27 09:19:46;;;;;;;;;;;;;;;9.54;49.93;100921.56;5124885;27;20520;-83
2022/11/27 09:22:11;;;;;;;;;;;;;;;8.99;51.62;100925.41;5128396;27;19907;-83
2022/11/27 09:24:37;;;;;;;;;;;;;;;9.13;51.70;100920.28;5130650;27;19915;-84
2022/11/27 09:27:02;;;;;;;;;;;;;;;9.36;51.03;100919.63;5123399;27;19915;-84
2022/11/27 09:29:27;;;;;;;;;;;;;;;9.85;51.83;100909.50;5130106;27;19912;-82
2022/11/27 09:31:53;;;;;;;;;;;;;;;9.79;50.19;100914.72;5133993;27;19954;-83
2022/11/27 09:34:18;;;;;;;;;;;;;;;9.58;50.42;100905.78;5123024;27;19916;-86
2022/11/27 09:36:43;;;;;;;;;;;;;;;9.53;52.12;100902.25;5128690;27;19960;-86
2022/11/27 09:39:09;;;;;;;;;;;;;;;9.93;50.24;100889.38;5126781;27;19919;-86
2022/11/27 09:41:38;;;;;;;;;;;;;;;10.14;50.58;100885.97;5124531;27;19920;-85
2022/11/27 09:44:22;;;;;;;;;;;;;;;10.11;49.61;100879.81;5128022;28;20360;-83
2022/11/27 09:46:48;;;;;;;;;;;;;;;9.88;50.39;100867.34;5127756;28;19918;-86
2022/11/27 09:49:16;;;;;;;;;;;;;;;10.17;49.78;100864.88;5124729;28;19911;-85
2022/11/27 09:51:42;;;;;;;;;;;;;;;10.18;49.99;100865.78;5130156;27;20308;-85
2022/11/27 09:54:07;;;;;;;;;;;;;;;9.89;49.64;100865.63;5124136;27;19916;-84
2022/11/27 09:56:33;;;;;;;;;;;;;;;10.09;50.09;100858.69;5127102;28;19912;-86
2022/11/27 09:58:59;;;;;;;;;;;;;;;10.37;48.51;100854.47;5123655;28;19911;-85
2022/11/27 10:01:27;;;;;;;;;;;;;;;10.34;48.83;100848.31;5130533;28;19938;-84
2022/11/27 10:03:53;;;;;;;;;;;;;;;10.55;48.49;100845.75;5131607;28;19911;-84
2022/11/27 10:06:33;;;;;;;;;;;;;;;10.88;48.46;100836.16;5124130;28;19915;-85
2022/11/27 10:09:17;;;;;;;;;;;;;;;10.56;47.88;100839.56;5110124;28;19916;-84
2022/11/27 10:12:00;;;;;;;;;;;;;;;10.48;48.60;100843.97;5127594;28;19911;-85
2022/11/27 10:14:31;;;;;;;;;;;;;;;10.67;47.78;100841.38;5120143;28;19915;-84
2022/11/27 10:17:20;;;;;;;;;;;;;;;10.52;47.65;100835.19;5110519;28;19912;-85
2022/11/27 10:19:56;;;;;;;;;;;;;;;10.30;49.08;100841.22;5102781;28;20411;-84
2022/11/27 10:22:26;;;;;;;;;;;;;;;10.59;49.03;100841.34;5112775;28;19918;-87
2022/11/27 10:24:54;;;;;;;;;;;;;;;10.70;48.94;100830.84;5113803;28;20313;-85
2022/11/27 10:27:26;;;;;;;;;;;;;;;11.03;47.61;100823.84;5115373;27;19962;-87
2022/11/27 10:29:53;;;;;;;;;;;;;;;11.26;47.16;100824.75;5104788;27;19911;-86
2022/11/27 10:32:20;;;;;;;;;;;;;;;11.35;47.70;100823.84;5133250;27;21125;-88
2022/11/27 10:34:48;;;;;;;;;;;;;;;11.30;47.75;100815.06;5113059;27;19915;-89
2022/11/27 10:37:20;;;;;;;;;;;;;;;11.34;46.17;100795.69;5134772;27;19986;-86
2022/11/27 10:39:49;;;;;;;;;;;;;;;11.41;47.11;100789.50;5127738;27;19947;-88
2022/11/27 10:42:19;;;;;;;;;;;;;;;11.15;47.11;100791.28;5151005;27;19918;-87
2022/11/27 10:44:47;;;;;;;;;;;;;;;10.21;48.06;100784.94;5137345;27;19915;-88
2022/11/27 10:47:12;;;;;;;;;;;;;;;10.44;48.98;100778.00;5157824;27;19918;-86
2022/11/27 10:49:39;;;;;;;;;;;;;;;11.02;48.79;100772.81;5137524;27;19911;-88
2022/11/27 10:52:04;;;;;;;;;;;;;;;11.44;45.75;100771.00;5129070;27;19994;-84
2022/11/27 10:54:33;;;;;;;;;;;;;;;11.51;47.51;100773.66;5127952;27;20343;-87
2022/11/27 10:57:15;;;;;;;;;;;;;;;11.57;45.96;100769.25;5157030;27;19915;-84
2022/11/27 10:59:47;;;;;;;;;;;;;;;11.74;45.39;100773.59;5135555;27;19964;-88
2022/11/27 11:02:31;;;;;;;;;;;;;;;11.95;44.79;100778.00;5134735;27;19993;-91
2022/11/27 11:04:57;;;;;;;;;;;;;;;12.32;44.44;100770.78;5114446;28;19912;-91
2022/11/27 11:07:24;;;;;;;;;;;;;;;12.30;43.06;100769.91;5096142;28;20002;-88
2022/11/27 11:09:49;;;;;;;;;;;;;;;12.40;42.14;100767.22;5124082;27;19922;-86
2022/11/27 11:12:17;;;;;;;;;;;;;;;12.49;42.09;100761.88;5129745;27;19919;-84
2022/11/27 11:14:49;;;;;;;;;;;;;;;12.27;42.97;100755.81;5127245;27;19915;-86
2022/11/27 11:17:16;;;;;;;;;;;;;;;12.12;43.44;100757.63;5133332;27;19929;-86
2022/11/27 11:19:42;;;;;;;;;;;;;;;12.07;44.29;100748.84;5126193;27;19922;-86
2022/11/27 11:22:17;;;;;;;;;;;;;;;12.47;41.30;100743.34;5124803;27;20384;-86
2022/11/27 11:24:49;;;;;;;;;;;;;;;12.36;42.42;100751.34;5130252;27;20439;-85
2022/11/27 11:27:17;;;;;;;;;;;;;;;12.40;42.04;100732.81;5127549;27;19925;-86
2022/11/27 11:29:51;;;;;;;;;;;;;;;12.33;41.96;100742.56;5144578;27;19977;-85
2022/11/27 11:32:19;;;;;;;;;;;;;;;12.42;42.86;100737.22;5154567;27;19911;-85
2022/11/27 11:34:46;;;;;;;;;;;;;;;12.51;43.05;100731.88;5155029;27;20384;-86
2022/11/27 11:37:35;;;;;;;;;;;;;;;12.65;41.94;100729.13;5144358;27;19968;-86
2022/11/27 11:40:24;;;;;;;;;;;;;;;12.48;40.81;100726.59;5133249;27;19951;-87
2022/11/27 11:42:54;;;;;;;;;;;;;;;12.26;40.41;100723.19;5123954;27;19997;-86
2022/11/27 11:45:21;;;;;;;;;;;;;;;12.48;40.54;100716.00;5121143;27;19919;-87
2022/11/27 11:47:53;;;;;;;;;;;;;;;12.51;40.70;100712.44;5135385;27;19958;-87
2022/11/27 11:50:27;;;;;;;;;;;;;;;12.67;39.16;100716.75;5125214;27;19915;-87
2022/11/27 11:53:07;;;;;;;;;;;;;;;12.88;37.60;100706.88;5133628;27;19915;-85
2022/11/27 11:55:38;;;;;;;;;;;;;;;12.83;38.62;100706.03;5133179;27;20010;-87
2022/11/27 11:58:23;;;;;;;;;;;;;;;12.71;39.96;100702.63;5133793;27;19965;-85
2022/11/27 12:00:50;;;;;;;;;;;;;;;12.71;38.88;100697.31;5133386;27;19912;-85
2022/11/27 12:03:18;;;;;;;;;;;;;;;12.81;39.84;100702.53;5123867;27;19925;-87
2022/11/27 12:05:52;;;;;;;;;;;;;;;12.83;40.50;100692.81;5129151;27;20431;-85
2022/11/27 12:08:26;;;;;;;;;;;;;;;12.95;38.33;100683.88;5126542;27;20420;-87
2022/11/27 12:10:55;;;;;;;;;;;;;;;12.91;35.98;100677.72;5121153;27;19941;-88
2022/11/27 12:13:33;;;;;;;;;;;;;;;12.62;36.19;100677.97;5120910;27;19915;-88
2022/11/27 12:16:16;;;;;;;;;;;;;;;12.62;37.79;100681.50;5132510;27;19960;-86
2022/11/27 12:19:08;;;;;;;;;;;;;;;12.78;38.01;100681.38;5132734;27;19922;-86
2022/11/27 12:21:33;;;;;;;;;;;;;;;13.02;36.85;100674.97;5108817;27;19911;-88
2022/11/27 12:24:01;;;;;;;;;;;;;;;13.10;36.71;100669.59;5133588;27;19922;-87
2022/11/27 12:26:28;;;;;;;;;;;;;;;12.38;40.12;100674.63;5133665;27;19921;-87
2022/11/27 12:29:20;;;;;;;;;;;;;;;12.32;38.93;100672.88;5132020;27;19989;-85
2022/11/27 12:31:57;;;;;;;;;;;;;;;12.57;37.71;100659.47;5129757;27;19911;-85
2022/11/27 12:34:37;;;;;;;;;;;;;;;12.77;36.22;100663.72;5154411;27;19918;-83
2022/11/27 12:37:16;;;;;;;;;;;;;;;12.85;35.72;100662.78;5112466;28;19958;-84
2022/11/27 12:39:41;;;;;;;;;;;;;;;12.80;37.82;100664.56;5113940;28;19912;-85
2022/11/27 12:42:19;;;;;;;;;;;;;;;13.01;36.02;100662.66;5113174;28;19908;-84
2022/11/27 12:44:50;;;;;;;;;;;;;;;12.83;35.45;100653.09;5114138;28;20007;-83
2022/11/27 12:47:47;;;;;;;;;;;;;;;12.95;35.24;100660.06;5131017;27;19922;-83
2022/11/27 12:50:16;;;;;;;;;;;;;;;12.94;35.00;100660.94;5100058;27;20032;-85